sensor_id;sensor_type;location;lat;lon;timestamp;P1;durP1;ratioP1;P2;durP2;ratioP2
52396;SDS011;38322;53.108;6.308;2023-08-12T05:02:09;10.00;;;6.00;;
52396;SDS011;38322;53.108;6.308;2023-08-12T05:04:35;9.30;;;6.88;;
52396;SDS011;38322;53.108;6.308;2023-08-12T05:07:01;9.93;;;6.85;;
52396;SDS011;38322;53.108;6.308;2023-08-12T05:09:27;9.13;;;6.68;;
52396;SDS011;38322;53.108;6.308;2023-08-12T05:11:52;13.00;;;7.15;;
52396;SDS011;38322;53.108;6.308;2023-08-12T05:14:18;10.57;;;7.38;;
52396;SDS011;38322;53.108;6.308;2023-08-12T05:16:44;14.10;;;8.00;;
52396;SDS011;38322;53.108;6.308;2023-08-12T05:19:10;8.25;;;6.97;;
52396;SDS011;38322;53.108;6.308;2023-08-12T05:21:36;11.02;;;7.97;;
52396;SDS011;38322;53.108;6.308;2023-08-12T05:24:01;10.48;;;7.65;;
52396;SDS011;38322;53.108;6.308;2023-08-12T05:26:28;11.75;;;7.70;;
52396;SDS011;38322;53.108;6.308;2023-08-12T05:28:54;10.02;;;7.47;;
52396;SDS011;38322;53.108;6.308;2023-08-12T05:31:19;10.95;;;8.18;;
52396;SDS011;38322;53.108;6.308;2023-08-12T05:33:45;14.20;;;8.63;;
52396;SDS011;38322;53.108;6.308;2023-08-12T05:36:11;11.85;;;6.88;;
52396;SDS011;38322;53.108;6.308;2023-08-12T05:38:37;9.85;;;7.47;;
52396;SDS011;38322;53.108;6.308;2023-08-12T05:41:03;9.40;;;7.68;;
52396;SDS011;38322;53.108;6.308;2023-08-12T05:43:32;10.20;;;6.97;;
52396;SDS011;38322;53.108;6.308;2023-08-12T05:45:58;14.23;;;8.88;;
52396;SDS011;38322;53.108;6.308;2023-08-12T05:48:24;10.85;;;8.18;;
52396;SDS011;38322;53.108;6.308;2023-08-12T05:50:49;11.00;;;7.03;;
52396;SDS011;38322;53.108;6.308;2023-08-12T05:53:15;14.85;;;8.55;;
52396;SDS011;38322;53.108;6.308;2023-08-12T05:55:41;10.75;;;7.68;;
52396;SDS011;38322;53.108;6.308;2023-08-12T05:58:07;10.02;;;7.65;;
52396;SDS011;38322;53.108;6.308;2023-08-12T06:00:33;10.63;;;7.63;;
52396;SDS011;38322;53.108;6.308;2023-08-12T06:02:59;12.32;;;8.70;;
52396;SDS011;38322;53.108;6.308;2023-08-12T06:05:25;13.10;;;7.30;;
52396;SDS011;38322;53.108;6.308;2023-08-12T06:07:50;12.55;;;9.25;;
52396;SDS011;38322;53.108;6.308;2023-08-12T06:10:16;10.10;;;7.68;;
52396;SDS011;38322;53.108;6.308;2023-08-12T06:12:42;14.50;;;8.60;;
52396;SDS011;38322;53.108;6.308;2023-08-12T06:15:08;15.30;;;9.68;;
52396;SDS011;38322;53.108;6.308;2023-08-12T06:17:35;11.82;;;8.60;;
52396;SDS011;38322;53.108;6.308;2023-08-12T06:20:01;12.10;;;9.60;;
52396;SDS011;38322;53.108;6.308;2023-08-12T06:22:27;11.85;;;7.70;;
52396;SDS011;38322;53.108;6.308;2023-08-12T06:24:53;18.42;;;11.00;;
52396;SDS011;38322;53.108;6.308;2023-08-12T06:27:19;12.48;;;8.55;;
52396;SDS011;38322;53.108;6.308;2023-08-12T06:29:46;16.48;;;9.13;;
52396;SDS011;38322;53.108;6.308;2023-08-12T06:32:12;11.18;;;8.02;;
52396;SDS011;38322;53.108;6.308;2023-08-12T06:34:39;12.30;;;9.68;;
52396;SDS011;38322;53.108;6.308;2023-08-12T06:37:06;12.88;;;8.75;;
52396;SDS011;38322;53.108;6.308;2023-08-12T06:39:32;14.55;;;8.02;;
52396;SDS011;38322;53.108;6.308;2023-08-12T06:41:58;10.90;;;8.23;;
52396;SDS011;38322;53.108;6.308;2023-08-12T06:44:24;14.93;;;9.32;;
52396;SDS011;38322;53.108;6.308;2023-08-12T06:46:50;10.35;;;8.18;;
52396;SDS011;38322;53.108;6.308;2023-08-12T06:49:16;18.92;;;11.23;;
52396;SDS011;38322;53.108;6.308;2023-08-12T06:51:43;15.90;;;9.65;;
52396;SDS011;38322;53.108;6.308;2023-08-12T06:54:09;17.50;;;10.75;;
52396;SDS011;38322;53.108;6.308;2023-08-12T06:56:35;16.60;;;10.25;;
52396;SDS011;38322;53.108;6.308;2023-08-12T06:59:01;13.88;;;9.95;;
52396;SDS011;38322;53.108;6.308;2023-08-12T07:01:26;14.25;;;9.90;;
52396;SDS011;38322;53.108;6.308;2023-08-12T07:03:52;17.60;;;11.98;;
52396;SDS011;38322;53.108;6.308;2023-08-12T07:06:18;12.23;;;10.23;;
52396;SDS011;38322;53.108;6.308;2023-08-12T07:08:44;15.43;;;10.40;;
52396;SDS011;38322;53.108;6.308;2023-08-12T07:11:10;12.85;;;9.55;;
52396;SDS011;38322;53.108;6.308;2023-08-12T07:13:36;11.85;;;8.70;;
52396;SDS011;38322;53.108;6.308;2023-08-12T07:16:02;10.70;;;9.63;;
52396;SDS011;38322;53.108;6.308;2023-08-12T07:18:28;15.98;;;10.30;;
52396;SDS011;38322;53.108;6.308;2023-08-12T07:20:54;16.50;;;9.85;;
52396;SDS011;38322;53.108;6.308;2023-08-12T07:23:20;15.05;;;10.98;;
52396;SDS011;38322;53.108;6.308;2023-08-12T07:25:46;17.10;;;10.40;;
52396;SDS011;38322;53.108;6.308;2023-08-12T07:28:12;12.77;;;9.48;;
52396;SDS011;38322;53.108;6.308;2023-08-12T07:30:38;15.93;;;10.75;;
52396;SDS011;38322;53.108;6.308;2023-08-12T07:33:04;15.35;;;11.90;;
52396;SDS011;38322;53.108;6.308;2023-08-12T07:35:30;15.63;;;11.00;;
52396;SDS011;38322;53.108;6.308;2023-08-12T07:37:56;13.40;;;10.43;;
52396;SDS011;38322;53.108;6.308;2023-08-12T07:40:22;14.50;;;11.30;;
52396;SDS011;38322;53.108;6.308;2023-08-12T07:42:48;19.88;;;12.80;;
52396;SDS011;38322;53.108;6.308;2023-08-12T07:45:13;15.32;;;12.15;;
52396;SDS011;38322;53.108;6.308;2023-08-12T07:47:39;18.05;;;12.15;;
52396;SDS011;38322;53.108;6.308;2023-08-12T07:50:05;13.65;;;11.35;;
52396;SDS011;38322;53.108;6.308;2023-08-12T07:52:31;15.30;;;11.80;;
52396;SDS011;38322;53.108;6.308;2023-08-12T07:54:57;14.30;;;10.90;;
52396;SDS011;38322;53.108;6.308;2023-08-12T07:57:23;21.77;;;14.32;;
52396;SDS011;38322;53.108;6.308;2023-08-12T07:59:50;16.52;;;14.15;;
52396;SDS011;38322;53.108;6.308;2023-08-12T08:02:16;21.10;;;13.15;;
52396;SDS011;38322;53.108;6.308;2023-08-12T08:04:42;20.83;;;14.27;;
52396;SDS011;38322;53.108;6.308;2023-08-12T08:07:08;21.02;;;13.07;;
52396;SDS011;38322;53.108;6.308;2023-08-12T08:09:34;17.55;;;13.40;;
52396;SDS011;38322;53.108;6.308;2023-08-12T08:12:00;19.95;;;12.93;;
52396;SDS011;38322;53.108;6.308;2023-08-12T08:14:26;18.55;;;13.18;;
52396;SDS011;38322;53.108;6.308;2023-08-12T08:16:52;14.80;;;12.45;;
52396;SDS011;38322;53.108;6.308;2023-08-12T08:19:19;14.85;;;13.25;;
52396;SDS011;38322;53.108;6.308;2023-08-12T08:21:44;22.48;;;13.88;;
52396;SDS011;38322;53.108;6.308;2023-08-12T08:24:10;18.95;;;13.95;;
52396;SDS011;38322;53.108;6.308;2023-08-12T08:26:40;15.10;;;12.23;;
52396;SDS011;38322;53.108;6.308;2023-08-12T08:29:06;15.48;;;11.13;;
52396;SDS011;38322;53.108;6.308;2023-08-12T08:31:32;17.55;;;12.77;;
52396;SDS011;38322;53.108;6.308;2023-08-12T08:33:58;17.25;;;12.02;;
52396;SDS011;38322;53.108;6.308;2023-08-12T08:36:24;17.48;;;13.23;;
52396;SDS011;38322;53.108;6.308;2023-08-12T08:38:50;22.80;;;15.60;;
52396;SDS011;38322;53.108;6.308;2023-08-12T08:41:16;23.63;;;15.35;;
52396;SDS011;38322;53.108;6.308;2023-08-12T08:43:42;14.35;;;12.85;;
52396;SDS011;38322;53.108;6.308;2023-08-12T08:46:14;21.65;;;15.32;;
52396;SDS011;38322;53.108;6.308;2023-08-12T08:48:42;20.55;;;16.27;;
52396;SDS011;38322;53.108;6.308;2023-08-12T08:51:11;16.88;;;15.00;;
52396;SDS011;38322;53.108;6.308;2023-08-12T08:53:38;22.77;;;16.40;;
52396;SDS011;38322;53.108;6.308;2023-08-12T08:56:05;25.73;;;16.70;;
52396;SDS011;38322;53.108;6.308;2023-08-12T09:01:03;22.65;;;15.55;;
52396;SDS011;38322;53.108;6.308;2023-08-12T09:03:36;23.05;;;16.55;;
52396;SDS011;38322;53.108;6.308;2023-08-12T09:06:03;19.63;;;14.80;;
52396;SDS011;38322;53.108;6.308;2023-08-12T09:08:31;19.05;;;15.80;;
52396;SDS011;38322;53.108;6.308;2023-08-12T09:10:58;19.38;;;15.13;;
52396;SDS011;38322;53.108;6.308;2023-08-12T09:13:27;16.52;;;13.68;;
52396;SDS011;38322;53.108;6.308;2023-08-12T09:15:53;22.05;;;17.60;;
52396;SDS011;38322;53.108;6.308;2023-08-12T09:18:20;26.77;;;17.65;;
52396;SDS011;38322;53.108;6.308;2023-08-12T09:20:51;21.58;;;17.05;;
52396;SDS011;38322;53.108;6.308;2023-08-12T09:23:19;15.68;;;13.70;;
52396;SDS011;38322;53.108;6.308;2023-08-12T09:25:44;16.17;;;13.48;;
52396;SDS011;38322;53.108;6.308;2023-08-12T09:28:11;19.95;;;15.90;;
52396;SDS011;38322;53.108;6.308;2023-08-12T09:30:38;19.92;;;16.13;;
52396;SDS011;38322;53.108;6.308;2023-08-12T09:33:05;21.25;;;15.32;;
52396;SDS011;38322;53.108;6.308;2023-08-12T09:35:36;17.38;;;14.68;;
52396;SDS011;38322;53.108;6.308;2023-08-12T09:38:10;15.27;;;13.68;;
52396;SDS011;38322;53.108;6.308;2023-08-12T09:40:38;15.80;;;13.38;;
52396;SDS011;38322;53.108;6.308;2023-08-12T09:43:05;17.23;;;13.90;;
52396;SDS011;38322;53.108;6.308;2023-08-12T09:45:31;16.58;;;14.30;;
52396;SDS011;38322;53.108;6.308;2023-08-12T09:47:59;16.50;;;13.55;;
52396;SDS011;38322;53.108;6.308;2023-08-12T09:50:25;13.35;;;12.00;;
52396;SDS011;38322;53.108;6.308;2023-08-12T09:52:52;16.33;;;12.90;;
52396;SDS011;38322;53.108;6.308;2023-08-12T09:55:20;15.23;;;12.43;;
52396;SDS011;38322;53.108;6.308;2023-08-12T09:57:53;14.00;;;12.63;;
52396;SDS011;38322;53.108;6.308;2023-08-12T10:00:20;14.55;;;12.68;;
52396;SDS011;38322;53.108;6.308;2023-08-12T10:02:48;16.58;;;13.15;;
52396;SDS011;38322;53.108;6.308;2023-08-12T10:05:24;12.80;;;11.25;;
52396;SDS011;38322;53.108;6.308;2023-08-12T10:07:53;12.88;;;10.68;;
52396;SDS011;38322;53.108;6.308;2023-08-12T10:10:20;11.65;;;10.45;;
52396;SDS011;38322;53.108;6.308;2023-08-12T10:12:47;14.60;;;11.38;;
52396;SDS011;38322;53.108;6.308;2023-08-12T10:15:14;11.98;;;10.75;;
52396;SDS011;38322;53.108;6.308;2023-08-12T10:17:40;14.05;;;9.68;;
52396;SDS011;38322;53.108;6.308;2023-08-12T10:20:08;11.23;;;8.57;;
52396;SDS011;38322;53.108;6.308;2023-08-12T10:22:37;12.32;;;9.52;;
52396;SDS011;38322;53.108;6.308;2023-08-12T10:25:07;10.13;;;9.07;;
52396;SDS011;38322;53.108;6.308;2023-08-12T10:27:34;10.60;;;7.43;;
52396;SDS011;38322;53.108;6.308;2023-08-12T10:30:06;8.68;;;5.97;;
52396;SDS011;38322;53.108;6.308;2023-08-12T10:32:36;5.85;;;5.05;;
52396;SDS011;38322;53.108;6.308;2023-08-12T10:35:02;6.30;;;5.53;;
52396;SDS011;38322;53.108;6.308;2023-08-12T10:37:31;6.38;;;5.47;;
52396;SDS011;38322;53.108;6.308;2023-08-12T10:39:59;5.20;;;4.32;;
52396;SDS011;38322;53.108;6.308;2023-08-12T10:42:48;5.95;;;4.45;;
52396;SDS011;38322;53.108;6.308;2023-08-12T10:45:15;3.72;;;3.17;;
52396;SDS011;38322;53.108;6.308;2023-08-12T10:47:43;10.20;;;4.00;;
52396;SDS011;38322;53.108;6.308;2023-08-12T10:50:20;5.53;;;3.28;;
52396;SDS011;38322;53.108;6.308;2023-08-12T10:52:51;4.25;;;3.20;;
52396;SDS011;38322;53.108;6.308;2023-08-12T10:57:44;3.35;;;3.05;;
52396;SDS011;38322;53.108;6.308;2023-08-12T11:00:11;2.80;;;2.47;;
52396;SDS011;38322;53.108;6.308;2023-08-12T11:02:40;3.28;;;2.97;;
52396;SDS011;38322;53.108;6.308;2023-08-12T11:05:10;8.60;;;3.13;;
52396;SDS011;38322;53.108;6.308;2023-08-12T11:07:41;3.97;;;3.20;;
52396;SDS011;38322;53.108;6.308;2023-08-12T11:12:41;5.88;;;1.95;;
52396;SDS011;38322;53.108;6.308;2023-08-12T11:15:13;4.60;;;1.40;;
52396;SDS011;38322;53.108;6.308;2023-08-12T11:17:39;3.47;;;1.25;;
52396;SDS011;38322;53.108;6.308;2023-08-12T11:20:07;6.00;;;1.33;;
52396;SDS011;38322;53.108;6.308;2023-08-12T11:22:38;2.78;;;0.82;;
52396;SDS011;38322;53.108;6.308;2023-08-12T11:25:09;3.55;;;1.90;;
52396;SDS011;38322;53.108;6.308;2023-08-12T11:27:37;12.32;;;3.50;;
52396;SDS011;38322;53.108;6.308;2023-08-12T11:30:03;4.13;;;2.20;;
52396;SDS011;38322;53.108;6.308;2023-08-12T11:32:30;2.75;;;1.10;;
52396;SDS011;38322;53.108;6.308;2023-08-12T11:34:55;6.15;;;1.30;;
52396;SDS011;38322;53.108;6.308;2023-08-12T11:37:21;3.97;;;2.30;;
52396;SDS011;38322;53.108;6.308;2023-08-12T11:39:47;4.47;;;1.25;;
52396;SDS011;38322;53.108;6.308;2023-08-12T11:42:13;5.28;;;1.50;;
52396;SDS011;38322;53.108;6.308;2023-08-12T11:44:40;5.38;;;1.60;;
52396;SDS011;38322;53.108;6.308;2023-08-12T11:47:07;6.57;;;2.38;;
52396;SDS011;38322;53.108;6.308;2023-08-12T11:49:33;7.13;;;2.63;;
52396;SDS011;38322;53.108;6.308;2023-08-12T11:51:58;6.72;;;1.98;;
52396;SDS011;38322;53.108;6.308;2023-08-12T11:54:25;5.38;;;2.67;;
52396;SDS011;38322;53.108;6.308;2023-08-12T11:56:52;9.32;;;3.60;;
52396;SDS011;38322;53.108;6.308;2023-08-12T11:59:18;7.07;;;1.70;;
52396;SDS011;38322;53.108;6.308;2023-08-12T12:01:46;7.45;;;1.70;;
52396;SDS011;38322;53.108;6.308;2023-08-12T12:04:14;4.32;;;1.40;;
52396;SDS011;38322;53.108;6.308;2023-08-12T12:06:41;3.75;;;1.50;;
52396;SDS011;38322;53.108;6.308;2023-08-12T12:09:07;5.40;;;2.00;;
52396;SDS011;38322;53.108;6.308;2023-08-12T12:11:35;4.25;;;1.88;;
52396;SDS011;38322;53.108;6.308;2023-08-12T12:14:05;6.65;;;2.33;;
52396;SDS011;38322;53.108;6.308;2023-08-12T12:16:38;5.47;;;2.40;;
52396;SDS011;38322;53.108;6.308;2023-08-12T12:19:09;9.75;;;1.33;;
52396;SDS011;38322;53.108;6.308;2023-08-12T12:21:39;6.45;;;2.38;;
52396;SDS011;38322;53.108;6.308;2023-08-12T12:24:06;3.83;;;1.30;;
52396;SDS011;38322;53.108;6.308;2023-08-12T12:26:33;7.38;;;1.98;;
52396;SDS011;38322;53.108;6.308;2023-08-12T12:28:59;10.25;;;1.95;;
52396;SDS011;38322;53.108;6.308;2023-08-12T12:31:26;5.72;;;1.77;;
52396;SDS011;38322;53.108;6.308;2023-08-12T12:33:52;10.07;;;2.97;;
52396;SDS011;38322;53.108;6.308;2023-08-12T12:36:18;9.30;;;2.85;;
52396;SDS011;38322;53.108;6.308;2023-08-12T12:38:44;5.28;;;2.60;;
52396;SDS011;38322;53.108;6.308;2023-08-12T12:41:10;5.78;;;3.05;;
52396;SDS011;38322;53.108;6.308;2023-08-12T12:43:35;6.75;;;2.85;;
52396;SDS011;38322;53.108;6.308;2023-08-12T12:46:01;5.95;;;2.35;;
52396;SDS011;38322;53.108;6.308;2023-08-12T12:48:27;8.98;;;3.65;;
52396;SDS011;38322;53.108;6.308;2023-08-12T12:50:53;5.97;;;2.30;;
52396;SDS011;38322;53.108;6.308;2023-08-12T12:53:19;9.50;;;2.97;;
52396;SDS011;38322;53.108;6.308;2023-08-12T12:55:45;11.02;;;3.28;;
52396;SDS011;38322;53.108;6.308;2023-08-12T12:58:10;9.73;;;2.40;;
52396;SDS011;38322;53.108;6.308;2023-08-12T13:00:36;12.85;;;2.65;;
52396;SDS011;38322;53.108;6.308;2023-08-12T13:03:02;8.68;;;2.75;;
52396;SDS011;38322;53.108;6.308;2023-08-12T13:05:28;6.32;;;2.03;;
52396;SDS011;38322;53.108;6.308;2023-08-12T13:07:54;9.52;;;2.63;;
52396;SDS011;38322;53.108;6.308;2023-08-12T13:10:20;5.28;;;2.03;;
52396;SDS011;38322;53.108;6.308;2023-08-12T13:12:46;8.77;;;2.08;;
52396;SDS011;38322;53.108;6.308;2023-08-12T13:15:11;6.03;;;2.20;;
52396;SDS011;38322;53.108;6.308;2023-08-12T13:17:37;7.90;;;4.00;;
52396;SDS011;38322;53.108;6.308;2023-08-12T13:20:03;11.15;;;2.35;;
52396;SDS011;38322;53.108;6.308;2023-08-12T13:22:30;14.13;;;1.92;;
52396;SDS011;38322;53.108;6.308;2023-08-12T13:24:56;6.07;;;2.65;;
52396;SDS011;38322;53.108;6.308;2023-08-12T13:27:22;5.50;;;3.03;;
52396;SDS011;38322;53.108;6.308;2023-08-12T13:29:48;7.53;;;2.45;;
52396;SDS011;38322;53.108;6.308;2023-08-12T13:32:14;4.97;;;2.42;;
52396;SDS011;38322;53.108;6.308;2023-08-12T13:34:40;11.38;;;2.45;;
52396;SDS011;38322;53.108;6.308;2023-08-12T13:37:08;5.55;;;2.50;;
52396;SDS011;38322;53.108;6.308;2023-08-12T13:39:34;8.20;;;2.17;;
52396;SDS011;38322;53.108;6.308;2023-08-12T13:42:00;9.55;;;2.53;;
52396;SDS011;38322;53.108;6.308;2023-08-12T13:44:26;7.30;;;3.85;;
52396;SDS011;38322;53.108;6.308;2023-08-12T13:46:51;8.45;;;2.35;;
52396;SDS011;38322;53.108;6.308;2023-08-12T13:49:17;5.90;;;1.98;;
52396;SDS011;38322;53.108;6.308;2023-08-12T13:51:43;9.65;;;2.35;;
52396;SDS011;38322;53.108;6.308;2023-08-12T13:54:09;6.90;;;1.67;;
52396;SDS011;38322;53.108;6.308;2023-08-12T13:56:35;8.25;;;2.05;;
52396;SDS011;38322;53.108;6.308;2023-08-12T13:59:01;8.38;;;1.17;;
52396;SDS011;38322;53.108;6.308;2023-08-12T14:01:27;8.30;;;1.10;;
52396;SDS011;38322;53.108;6.308;2023-08-12T14:03:52;5.07;;;1.73;;
52396;SDS011;38322;53.108;6.308;2023-08-12T14:06:18;5.18;;;1.85;;
52396;SDS011;38322;53.108;6.308;2023-08-12T14:08:44;9.57;;;2.90;;
52396;SDS011;38322;53.108;6.308;2023-08-12T14:11:10;7.22;;;1.65;;
52396;SDS011;38322;53.108;6.308;2023-08-12T14:13:36;5.88;;;1.92;;
52396;SDS011;38322;53.108;6.308;2023-08-12T14:16:02;7.85;;;1.05;;
52396;SDS011;38322;53.108;6.308;2023-08-12T14:18:27;7.07;;;1.17;;
52396;SDS011;38322;53.108;6.308;2023-08-12T14:20:53;5.05;;;1.17;;
52396;SDS011;38322;53.108;6.308;2023-08-12T14:23:19;6.70;;;1.48;;
52396;SDS011;38322;53.108;6.308;2023-08-12T14:25:45;8.65;;;2.40;;
52396;SDS011;38322;53.108;6.308;2023-08-12T14:28:11;5.22;;;0.88;;
52396;SDS011;38322;53.108;6.308;2023-08-12T14:30:37;6.68;;;1.90;;
52396;SDS011;38322;53.108;6.308;2023-08-12T14:33:03;7.72;;;1.33;;
52396;SDS011;38322;53.108;6.308;2023-08-12T14:35:29;6.78;;;1.42;;
52396;SDS011;38322;53.108;6.308;2023-08-12T14:37:55;7.65;;;1.95;;
52396;SDS011;38322;53.108;6.308;2023-08-12T14:40:20;4.50;;;1.27;;
52396;SDS011;38322;53.108;6.308;2023-08-12T14:42:47;7.03;;;1.60;;
52396;SDS011;38322;53.108;6.308;2023-08-12T14:45:13;7.78;;;1.23;;
52396;SDS011;38322;53.108;6.308;2023-08-12T14:47:39;5.57;;;1.30;;
52396;SDS011;38322;53.108;6.308;2023-08-12T14:50:05;7.57;;;1.83;;
52396;SDS011;38322;53.108;6.308;2023-08-12T14:52:31;3.70;;;1.27;;
52396;SDS011;38322;53.108;6.308;2023-08-12T14:54:57;6.47;;;1.23;;
52396;SDS011;38322;53.108;6.308;2023-08-12T14:57:22;5.38;;;1.73;;
52396;SDS011;38322;53.108;6.308;2023-08-12T14:59:48;9.00;;;2.00;;
52396;SDS011;38322;53.108;6.308;2023-08-12T15:02:16;10.00;;;1.60;;
52396;SDS011;38322;53.108;6.308;2023-08-12T15:04:43;5.47;;;1.48;;
52396;SDS011;38322;53.108;6.308;2023-08-12T15:07:09;9.32;;;2.28;;
52396;SDS011;38322;53.108;6.308;2023-08-12T15:09:34;4.18;;;1.02;;
52396;SDS011;38322;53.108;6.308;2023-08-12T15:12:00;5.10;;;0.90;;
52396;SDS011;38322;53.108;6.308;2023-08-12T15:14:26;9.38;;;2.03;;
52396;SDS011;38322;53.108;6.308;2023-08-12T15:16:52;7.63;;;1.33;;
52396;SDS011;38322;53.108;6.308;2023-08-12T15:19:18;9.43;;;1.80;;
52396;SDS011;38322;53.108;6.308;2023-08-12T15:21:44;6.80;;;1.48;;
52396;SDS011;38322;53.108;6.308;2023-08-12T15:24:09;4.63;;;1.23;;
52396;SDS011;38322;53.108;6.308;2023-08-12T15:26:35;12.68;;;1.95;;
52396;SDS011;38322;53.108;6.308;2023-08-12T15:29:01;6.05;;;1.50;;
52396;SDS011;38322;53.108;6.308;2023-08-12T15:31:27;9.73;;;2.13;;
52396;SDS011;38322;53.108;6.308;2023-08-12T15:33:54;8.27;;;2.33;;
52396;SDS011;38322;53.108;6.308;2023-08-12T15:36:20;6.95;;;1.10;;
52396;SDS011;38322;53.108;6.308;2023-08-12T15:38:46;7.88;;;2.15;;
52396;SDS011;38322;53.108;6.308;2023-08-12T15:41:13;9.63;;;1.95;;
52396;SDS011;38322;53.108;6.308;2023-08-12T15:43:40;7.00;;;1.98;;
52396;SDS011;38322;53.108;6.308;2023-08-12T15:46:06;10.27;;;1.63;;
52396;SDS011;38322;53.108;6.308;2023-08-12T15:48:32;6.00;;;1.23;;
52396;SDS011;38322;53.108;6.308;2023-08-12T15:50:58;8.35;;;1.75;;
52396;SDS011;38322;53.108;6.308;2023-08-12T15:53:24;6.93;;;1.50;;
52396;SDS011;38322;53.108;6.308;2023-08-12T15:55:50;5.70;;;1.58;;
52396;SDS011;38322;53.108;6.308;2023-08-12T15:58:16;6.72;;;2.35;;
52396;SDS011;38322;53.108;6.308;2023-08-12T16:00:44;8.50;;;2.13;;
52396;SDS011;38322;53.108;6.308;2023-08-12T16:03:14;8.35;;;1.67;;
52396;SDS011;38322;53.108;6.308;2023-08-12T16:05:43;12.05;;;2.00;;
52396;SDS011;38322;53.108;6.308;2023-08-12T16:08:09;9.65;;;1.83;;
52396;SDS011;38322;53.108;6.308;2023-08-12T16:10:35;13.88;;;2.55;;
52396;SDS011;38322;53.108;6.308;2023-08-12T16:13:01;3.72;;;1.05;;
52396;SDS011;38322;53.108;6.308;2023-08-12T16:15:28;8.50;;;2.53;;
52396;SDS011;38322;53.108;6.308;2023-08-12T16:17:54;5.60;;;1.73;;
52396;SDS011;38322;53.108;6.308;2023-08-12T16:20:20;7.90;;;1.45;;
52396;SDS011;38322;53.108;6.308;2023-08-12T16:22:46;11.73;;;2.47;;
52396;SDS011;38322;53.108;6.308;2023-08-12T16:25:12;7.30;;;1.48;;
52396;SDS011;38322;53.108;6.308;2023-08-12T16:27:38;8.35;;;2.15;;
52396;SDS011;38322;53.108;6.308;2023-08-12T16:30:04;6.13;;;1.88;;
52396;SDS011;38322;53.108;6.308;2023-08-12T16:32:30;8.50;;;1.95;;
52396;SDS011;38322;53.108;6.308;2023-08-12T16:34:56;11.48;;;3.50;;
52396;SDS011;38322;53.108;6.308;2023-08-12T16:37:23;7.35;;;2.10;;
52396;SDS011;38322;53.108;6.308;2023-08-12T16:39:49;6.90;;;1.95;;
52396;SDS011;38322;53.108;6.308;2023-08-12T16:42:16;7.85;;;1.90;;
52396;SDS011;38322;53.108;6.308;2023-08-12T16:44:42;7.07;;;1.77;;
52396;SDS011;38322;53.108;6.308;2023-08-12T16:47:08;6.65;;;1.50;;
52396;SDS011;38322;53.108;6.308;2023-08-12T16:49:34;8.43;;;1.42;;
52396;SDS011;38322;53.108;6.308;2023-08-12T16:52:00;4.95;;;1.40;;
52396;SDS011;38322;53.108;6.308;2023-08-12T16:54:26;5.35;;;1.10;;
52396;SDS011;38322;53.108;6.308;2023-08-12T16:56:52;8.35;;;1.90;;
52396;SDS011;38322;53.108;6.308;2023-08-12T16:59:18;6.85;;;1.75;;
52396;SDS011;38322;53.108;6.308;2023-08-12T17:01:44;5.28;;;1.38;;
52396;SDS011;38322;53.108;6.308;2023-08-12T17:04:12;6.22;;;1.92;;
52396;SDS011;38322;53.108;6.308;2023-08-12T17:06:38;6.13;;;1.48;;
52396;SDS011;38322;53.108;6.308;2023-08-12T17:09:07;6.45;;;1.60;;
52396;SDS011;38322;53.108;6.308;2023-08-12T17:11:33;8.40;;;2.08;;
52396;SDS011;38322;53.108;6.308;2023-08-12T17:13:59;13.20;;;2.22;;
52396;SDS011;38322;53.108;6.308;2023-08-12T17:16:25;11.85;;;2.42;;
52396;SDS011;38322;53.108;6.308;2023-08-12T17:18:51;7.50;;;1.83;;
52396;SDS011;38322;53.108;6.308;2023-08-12T17:21:17;8.60;;;1.75;;
52396;SDS011;38322;53.108;6.308;2023-08-12T17:23:43;9.52;;;1.95;;
52396;SDS011;38322;53.108;6.308;2023-08-12T17:26:08;9.10;;;2.05;;
52396;SDS011;38322;53.108;6.308;2023-08-12T17:28:34;8.43;;;1.67;;
52396;SDS011;38322;53.108;6.308;2023-08-12T17:31:00;10.02;;;2.88;;
52396;SDS011;38322;53.108;6.308;2023-08-12T17:33:26;12.70;;;3.28;;
52396;SDS011;38322;53.108;6.308;2023-08-12T17:35:52;8.77;;;2.35;;
52396;SDS011;38322;53.108;6.308;2023-08-12T17:38:18;5.50;;;1.63;;
52396;SDS011;38322;53.108;6.308;2023-08-12T17:40:44;8.07;;;2.00;;
52396;SDS011;38322;53.108;6.308;2023-08-12T17:43:09;6.10;;;1.25;;
52396;SDS011;38322;53.108;6.308;2023-08-12T17:45:35;5.32;;;1.63;;
52396;SDS011;38322;53.108;6.308;2023-08-12T17:48:01;13.23;;;1.70;;
52396;SDS011;38322;53.108;6.308;2023-08-12T17:50:31;9.65;;;1.90;;
52396;SDS011;38322;53.108;6.308;2023-08-12T17:52:57;6.78;;;1.65;;
52396;SDS011;38322;53.108;6.308;2023-08-12T17:55:23;7.13;;;1.73;;
52396;SDS011;38322;53.108;6.308;2023-08-12T17:57:49;14.45;;;1.73;;
52396;SDS011;38322;53.108;6.308;2023-08-12T18:00:15;9.63;;;1.65;;
52396;SDS011;38322;53.108;6.308;2023-08-12T18:02:41;9.85;;;1.95;;
52396;SDS011;38322;53.108;6.308;2023-08-12T18:05:07;7.13;;;1.50;;
52396;SDS011;38322;53.108;6.308;2023-08-12T18:07:33;11.95;;;2.25;;
52396;SDS011;38322;53.108;6.308;2023-08-12T18:09:59;12.13;;;2.72;;
52396;SDS011;38322;53.108;6.308;2023-08-12T18:12:25;8.95;;;1.80;;
52396;SDS011;38322;53.108;6.308;2023-08-12T18:14:51;7.32;;;2.17;;
52396;SDS011;38322;53.108;6.308;2023-08-12T18:17:17;11.00;;;2.15;;
52396;SDS011;38322;53.108;6.308;2023-08-12T18:19:44;15.27;;;3.80;;
52396;SDS011;38322;53.108;6.308;2023-08-12T18:22:11;7.45;;;1.35;;
52396;SDS011;38322;53.108;6.308;2023-08-12T18:24:37;13.02;;;3.17;;
52396;SDS011;38322;53.108;6.308;2023-08-12T18:27:03;15.88;;;2.13;;
52396;SDS011;38322;53.108;6.308;2023-08-12T18:29:29;6.68;;;1.98;;
52396;SDS011;38322;53.108;6.308;2023-08-12T18:31:55;13.38;;;2.67;;
52396;SDS011;38322;53.108;6.308;2023-08-12T18:34:21;14.18;;;2.33;;
52396;SDS011;38322;53.108;6.308;2023-08-12T18:36:46;14.98;;;3.20;;
52396;SDS011;38322;53.108;6.308;2023-08-12T18:39:12;13.88;;;2.88;;
52396;SDS011;38322;53.108;6.308;2023-08-12T18:41:38;6.72;;;1.77;;
52396;SDS011;38322;53.108;6.308;2023-08-12T18:44:04;13.50;;;3.10;;
52396;SDS011;38322;53.108;6.308;2023-08-12T18:46:30;7.68;;;1.13;;
52396;SDS011;38322;53.108;6.308;2023-08-12T18:48:56;11.20;;;1.58;;
52396;SDS011;38322;53.108;6.308;2023-08-12T18:51:22;6.22;;;2.08;;
52396;SDS011;38322;53.108;6.308;2023-08-12T18:53:48;7.28;;;1.98;;
52396;SDS011;38322;53.108;6.308;2023-08-12T18:56:14;8.55;;;2.03;;
52396;SDS011;38322;53.108;6.308;2023-08-12T18:58:39;8.30;;;2.35;;
52396;SDS011;38322;53.108;6.308;2023-08-12T19:01:05;7.97;;;3.03;;
52396;SDS011;38322;53.108;6.308;2023-08-12T19:03:31;9.85;;;2.17;;
52396;SDS011;38322;53.108;6.308;2023-08-12T19:05:57;9.45;;;2.13;;
52396;SDS011;38322;53.108;6.308;2023-08-12T19:08:24;12.23;;;2.45;;
52396;SDS011;38322;53.108;6.308;2023-08-12T19:10:53;16.45;;;2.50;;
52396;SDS011;38322;53.108;6.308;2023-08-12T19:13:20;6.10;;;1.73;;
52396;SDS011;38322;53.108;6.308;2023-08-12T19:15:46;6.18;;;2.08;;
52396;SDS011;38322;53.108;6.308;2023-08-12T19:18:12;10.30;;;2.65;;
52396;SDS011;38322;53.108;6.308;2023-08-12T19:20:40;9.07;;;2.15;;
52396;SDS011;38322;53.108;6.308;2023-08-12T19:23:06;4.82;;;2.42;;
52396;SDS011;38322;53.108;6.308;2023-08-12T19:25:31;7.57;;;1.48;;
52396;SDS011;38322;53.108;6.308;2023-08-12T19:27:57;7.70;;;2.05;;
52396;SDS011;38322;53.108;6.308;2023-08-12T19:30:23;14.13;;;3.00;;
52396;SDS011;38322;53.108;6.308;2023-08-12T19:32:49;12.68;;;3.05;;
52396;SDS011;38322;53.108;6.308;2023-08-12T19:35:17;12.45;;;3.05;;
52396;SDS011;38322;53.108;6.308;2023-08-12T19:37:44;9.77;;;3.13;;
52396;SDS011;38322;53.108;6.308;2023-08-12T19:40:10;10.00;;;2.10;;
52396;SDS011;38322;53.108;6.308;2023-08-12T19:42:38;12.52;;;2.20;;